Time;durP1;ratioP1;P1;durP2;ratioP2;P2;SDS_P1;SDS_P2;PMS_P1;PMS_P2;Temp;Humidity;BMP_temperature;BMP_pressure;BME280_temperature;BME280_humidity;BME280_pressure;Samples;Min_cycle;Max_cycle;Signal;HPM_P1;HPM_P2
2021/07/03 00:00:34;;;;;;;;;;;;;;;;;;2140926;67;1152;-67
2021/07/03 00:03:00;;;;;;;;;;;;;;;;;;2140735;67;1183;-66
2021/07/03 00:05:25;;;;;;;;;;;;;;;;;;2140830;67;1932;-67
2021/07/03 00:07:51;;;;;;;;;;;;;;;;;;2140797;59;1425;-66
2021/07/03 00:10:16;;;;;;;;;;;;;;;;;;2140893;67;1232;-68
2021/07/03 00:12:42;;;;;;;;;;;;;;;;;;2140781;67;1214;-67
2021/07/03 00:15:11;;;;;;;;;;;;;;;;;;2140735;59;1331;-67
2021/07/03 00:17:37;;;;;;;;;;;;;;;;;;2140819;67;1159;-66
2021/07/03 00:20:05;;;;;;;;;;;;;;;;;;2140732;59;1257;-66
2021/07/03 00:22:30;;;;;;;;;;;;;;;;;;2140790;67;2252;-67
2021/07/03 00:24:55;;;;;;;;;;;;;;;;;;2140905;67;1064;-67
2021/07/03 00:27:20;;;;;;;;;;;;;;;;;;2140628;67;1933;-66
2021/07/03 00:29:45;;;;;;;;;;;;;;;;;;2139934;67;1231;-67
2021/07/03 00:32:10;;;;;;;;;;;;;;;;;;2141094;67;1415;-67
2021/07/03 00:34:36;;;;;;;;;;;;;;;;;;2141296;67;1172;-67
2021/07/03 00:37:01;;;;;;;;;;;;;;;;;;2141686;67;1065;-66
2021/07/03 00:39:27;;;;;;;;;;;;;;;;;;2141429;67;1205;-68
2021/07/03 00:41:52;;;;;;;;;;;;;;;;;;2141319;67;1069;-67
2021/07/03 00:44:30;;;;;;;;;;;;;;;;;;2140464;67;2163;-67
2021/07/03 00:46:56;;;;;;;;;;;;;;;;;;2140750;67;1987;-68
2021/07/03 00:49:21;;;;;;;;;;;;;;;;;;2141167;67;1227;-67
2021/07/03 00:51:46;;;;;;;;;;;;;;;;;;2141065;67;1552;-67
2021/07/03 00:54:12;;;;;;;;;;;;;;;;;;2141279;67;1086;-67
2021/07/03 00:56:37;;;;;;;;;;;;;;;;;;2141074;66;1554;-69
2021/07/03 00:59:02;;;;;;;;;;;;;;;;;;2141606;67;1242;-69
2021/07/03 01:01:28;;;;;;;;;;;;;;;;;;2141265;67;1322;-67
2021/07/03 01:03:53;;;;;;;;;;;;;;;;;;2141159;67;1335;-68
2021/07/03 01:06:18;;;;;;;;;;;;;;;;;;2141563;67;2004;-67
2021/07/03 01:08:43;;;;;;;;;;;;;;;;;;2140973;67;1322;-68
2021/07/03 01:11:08;;;;;;;;;;;;;;;;;;2141498;67;1437;-67
2021/07/03 01:13:34;;;;;;;;;;;;;;;;;;2141092;67;1152;-67
2021/07/03 01:15:59;;;;;;;;;;;;;;;;;;2141529;59;1210;-66
2021/07/03 01:18:24;;;;;;;;;;;;;;;;;;2141522;67;1163;-66
2021/07/03 01:20:52;;;;;;;;;;;;;;;;;;2147382;53;2062;-73
2021/07/03 01:23:18;;;;;;;;;;;;;;;;;;2141529;67;1368;-72
2021/07/03 01:25:43;;;;;;;;;;;;;;;;;;2141422;59;1946;-70
2021/07/03 01:28:08;;;;;;;;;;;;;;;;;;2140271;67;1244;-71
2021/07/03 01:30:33;;;;;;;;;;;;;;;;;;2141468;59;1710;-69
2021/07/03 01:32:58;;;;;;;;;;;;;;;;;;2141565;67;1270;-73
2021/07/03 01:35:28;;;;;;;;;;;;;;;;;;2141726;67;1439;-72
2021/07/03 01:37:53;;;;;;;;;;;;;;;;;;2141494;59;1228;-72
2021/07/03 01:40:18;;;;;;;;;;;;;;;;;;2141950;67;1155;-73
2021/07/03 01:42:44;;;;;;;;;;;;;;;;;;2141120;67;1021;-71
2021/07/03 01:45:09;;;;;;;;;;;;;;;;;;2140467;59;2062;-73
2021/07/03 01:47:40;;;;;;;;;;;;;;;;;;2142893;66;1924;-72
2021/07/03 01:50:05;;;;;;;;;;;;;;;;;;2142716;66;1381;-72
2021/07/03 01:52:32;;;;;;;;;;;;;;;;;;2141776;67;1167;-72
2021/07/03 01:54:57;;;;;;;;;;;;;;;;;;2141453;59;1221;-71
2021/07/03 01:57:22;;;;;;;;;;;;;;;;;;2141965;67;1229;-73
2021/07/03 01:59:48;;;;;;;;;;;;;;;;;;2141462;67;1218;-71
2021/07/03 02:02:13;;;;;;;;;;;;;;;;;;2141827;67;1235;-73
2021/07/03 02:04:38;;;;;;;;;;;;;;;;;;2141531;67;1207;-70
2021/07/03 02:07:03;;;;;;;;;;;;;;;;;;2141320;59;1916;-74
2021/07/03 02:09:29;;;;;;;;;;;;;;;;;;2141776;62;1050;-71
2021/07/03 02:11:54;;;;;;;;;;;;;;;;;;2141412;67;1239;-73
2021/07/03 02:14:19;;;;;;;;;;;;;;;;;;2141804;59;1378;-72
2021/07/03 02:16:44;;;;;;;;;;;;;;;;;;2141687;59;1224;-71
2021/07/03 02:19:09;;;;;;;;;;;;;;;;;;2141591;67;1231;-73
2021/07/03 02:21:35;;;;;;;;;;;;;;;;;;2140947;59;1634;-71
2021/07/03 02:24:01;;;;;;;;;;;;;;;;;;2141132;67;1154;-70
2021/07/03 02:26:27;;;;;;;;;;;;;;;;;;2141745;67;1964;-73
2021/07/03 02:28:52;;;;;;;;;;;;;;;;;;2142085;66;1292;-71
2021/07/03 02:31:18;;;;;;;;;;;;;;;;;;2142924;66;1422;-72
2021/07/03 02:33:43;;;;;;;;;;;;;;;;;;2142412;66;1125;-73
2021/07/03 02:36:08;;;;;;;;;;;;;;;;;;2141617;66;1164;-73
2021/07/03 02:38:33;;;;;;;;;;;;;;;;;;2141585;67;1209;-70
2021/07/03 02:40:59;;;;;;;;;;;;;;;;;;2141598;67;1113;-73
2021/07/03 02:43:24;;;;;;;;;;;;;;;;;;2141656;59;1215;-73
2021/07/03 02:45:49;;;;;;;;;;;;;;;;;;2141340;67;1974;-71
2021/07/03 02:48:14;;;;;;;;;;;;;;;;;;2141252;59;1854;-73
2021/07/03 02:50:39;;;;;;;;;;;;;;;;;;2143127;66;1250;-72
2021/07/03 02:53:05;;;;;;;;;;;;;;;;;;2143536;66;1084;-73
2021/07/03 02:55:30;;;;;;;;;;;;;;;;;;2142449;59;1345;-71
2021/07/03 02:57:55;;;;;;;;;;;;;;;;;;2143417;66;1194;-72
2021/07/03 03:00:20;;;;;;;;;;;;;;;;;;2141500;67;1225;-71
2021/07/03 03:02:45;;;;;;;;;;;;;;;;;;2142622;66;1177;-73
2021/07/03 03:05:12;;;;;;;;;;;;;;;;;;2142140;66;1431;-72
2021/07/03 03:07:37;;;;;;;;;;;;;;;;;;2141698;66;1928;-73
2021/07/03 03:10:04;;;;;;;;;;;;;;;;;;2143153;66;1422;-69
2021/07/03 03:12:29;;;;;;;;;;;;;;;;;;2141455;67;1196;-71
2021/07/03 03:14:54;;;;;;;;;;;;;;;;;;2141719;59;1282;-73
2021/07/03 03:17:19;;;;;;;;;;;;;;;;;;2140960;67;1172;-72
2021/07/03 03:19:44;;;;;;;;;;;;;;;;;;2141894;67;1246;-73
2021/07/03 03:22:09;;;;;;;;;;;;;;;;;;2141643;59;1159;-72
2021/07/03 03:24:35;;;;;;;;;;;;;;;;;;2141399;67;997;-72
2021/07/03 03:27:00;;;;;;;;;;;;;;;;;;2141792;67;1972;-73
2021/07/03 03:29:25;;;;;;;;;;;;;;;;;;2141074;59;1346;-69
2021/07/03 03:31:50;;;;;;;;;;;;;;;;;;2141311;67;1205;-72
2021/07/03 03:34:15;;;;;;;;;;;;;;;;;;2141254;59;1265;-70
2021/07/03 03:36:41;;;;;;;;;;;;;;;;;;2141613;67;1168;-73
2021/07/03 03:39:06;;;;;;;;;;;;;;;;;;2141713;67;1125;-72
2021/07/03 03:41:31;;;;;;;;;;;;;;;;;;2141495;67;1245;-72
2021/07/03 03:43:57;;;;;;;;;;;;;;;;;;2141350;59;1198;-72
2021/07/03 03:46:23;;;;;;;;;;;;;;;;;;2141332;67;1909;-73
2021/07/03 03:48:48;;;;;;;;;;;;;;;;;;2142681;66;1253;-72
2021/07/03 03:51:14;;;;;;;;;;;;;;;;;;2142003;59;1902;-70
2021/07/03 03:53:39;;;;;;;;;;;;;;;;;;2142270;66;1278;-72
2021/07/03 03:56:04;;;;;;;;;;;;;;;;;;2143238;66;1425;-72
2021/07/03 03:58:30;;;;;;;;;;;;;;;;;;2142592;67;1520;-72
2021/07/03 04:00:55;;;;;;;;;;;;;;;;;;2143203;66;1335;-72
2021/07/03 04:03:20;;;;;;;;;;;;;;;;;;2141652;67;1199;-70
2021/07/03 04:05:45;;;;;;;;;;;;;;;;;;2142721;67;1912;-73
2021/07/03 04:08:10;;;;;;;;;;;;;;;;;;2142038;59;1266;-69
2021/07/03 04:10:36;;;;;;;;;;;;;;;;;;2141861;67;1164;-73
2021/07/03 04:13:01;;;;;;;;;;;;;;;;;;2142179;67;1156;-71
2021/07/03 04:15:26;;;;;;;;;;;;;;;;;;2140520;59;1393;-72
2021/07/03 04:17:51;;;;;;;;;;;;;;;;;;2142112;67;1080;-71
2021/07/03 04:20:17;;;;;;;;;;;;;;;;;;2142304;59;1197;-74
2021/07/03 04:22:42;;;;;;;;;;;;;;;;;;2141187;67;1620;-72
2021/07/03 04:25:09;;;;;;;;;;;;;;;;;;2142130;67;1057;-70
2021/07/03 04:27:35;;;;;;;;;;;;;;;;;;2140402;67;1932;-72
2021/07/03 04:30:00;;;;;;;;;;;;;;;;;;2143273;66;1317;-72
2021/07/03 04:32:25;;;;;;;;;;;;;;;;;;2142585;66;1281;-71
2021/07/03 04:34:51;;;;;;;;;;;;;;;;;;2142105;67;1694;-73
2021/07/03 04:37:16;;;;;;;;;;;;;;;;;;2142189;67;1215;-72
2021/07/03 04:39:41;;;;;;;;;;;;;;;;;;2141916;67;1222;-73
2021/07/03 04:42:06;;;;;;;;;;;;;;;;;;2142101;67;1172;-72
2021/07/03 04:44:32;;;;;;;;;;;;;;;;;;2141521;67;1230;-71
2021/07/03 04:46:57;;;;;;;;;;;;;;;;;;2141818;59;1917;-72
2021/07/03 04:49:22;;;;;;;;;;;;;;;;;;2139414;67;1125;-69
2021/07/03 04:51:47;;;;;;;;;;;;;;;;;;2141638;66;2125;-73
2021/07/03 04:54:12;;;;;;;;;;;;;;;;;;2143018;66;1340;-70
2021/07/03 04:56:37;;;;;;;;;;;;;;;;;;2143184;66;1880;-72
2021/07/03 04:59:03;;;;;;;;;;;;;;;;;;2143908;66;1315;-72
2021/07/03 05:01:28;;;;;;;;;;;;;;;;;;2142684;66;1170;-72
2021/07/03 05:03:53;;;;;;;;;;;;;;;;;;2142776;66;1405;-74
2021/07/03 05:06:19;;;;;;;;;;;;;;;;;;2141916;66;1978;-70
2021/07/03 05:08:44;;;;;;;;;;;;;;;;;;2141925;66;1282;-72
2021/07/03 05:11:09;;;;;;;;;;;;;;;;;;2143078;66;1281;-71
2021/07/03 05:13:35;;;;;;;;;;;;;;;;;;2141509;66;1202;-71
2021/07/03 05:16:00;;;;;;;;;;;;;;;;;;2139587;59;1520;-73
2021/07/03 05:18:26;;;;;;;;;;;;;;;;;;2141893;67;1199;-72
2021/07/03 05:20:51;;;;;;;;;;;;;;;;;;2141544;59;1206;-71
2021/07/03 05:23:16;;;;;;;;;;;;;;;;;;2141725;67;1234;-72
2021/07/03 05:25:44;;;;;;;;;;;;;;;;;;2141477;67;1924;-70
2021/07/03 05:28:09;;;;;;;;;;;;;;;;;;2141062;67;2347;-73
2021/07/03 05:30:34;;;;;;;;;;;;;;;;;;2140437;59;1215;-72
2021/07/03 05:33:00;;;;;;;;;;;;;;;;;;2141341;67;1156;-71
2021/07/03 05:35:25;;;;;;;;;;;;;;;;;;2141427;67;1056;-72
2021/07/03 05:37:50;;;;;;;;;;;;;;;;;;2141231;67;1301;-72
2021/07/03 05:40:16;;;;;;;;;;;;;;;;;;2141601;67;1186;-72
2021/07/03 05:42:42;;;;;;;;;;;;;;;;;;2141638;67;1235;-73
2021/07/03 05:45:07;;;;;;;;;;;;;;;;;;2141586;67;1169;-73
2021/07/03 05:47:32;;;;;;;;;;;;;;;;;;2142568;66;1944;-72
2021/07/03 05:49:58;;;;;;;;;;;;;;;;;;2143228;66;1369;-72
2021/07/03 05:52:23;;;;;;;;;;;;;;;;;;2142527;66;2124;-72
2021/07/03 05:54:48;;;;;;;;;;;;;;;;;;2143283;66;1309;-70
2021/07/03 05:57:13;;;;;;;;;;;;;;;;;;2143820;66;1250;-73
2021/07/03 05:59:40;;;;;;;;;;;;;;;;;;2143630;59;1581;-70
2021/07/03 06:02:06;;;;;;;;;;;;;;;;;;2142799;66;1243;-72
2021/07/03 06:04:31;;;;;;;;;;;;;;;;;;2141816;66;2345;-73
2021/07/03 06:06:57;;;;;;;;;;;;;;;;;;2141812;59;1921;-71
2021/07/03 06:09:22;;;;;;;;;;;;;;;;;;2142538;67;1173;-73
2021/07/03 06:11:48;;;;;;;;;;;;;;;;;;2142248;67;1325;-71
2021/07/03 06:14:13;;;;;;;;;;;;;;;;;;2142679;59;1182;-71
2021/07/03 06:16:38;;;;;;;;;;;;;;;;;;2143200;59;1281;-73
2021/07/03 06:19:03;;;;;;;;;;;;;;;;;;2142786;59;1904;-70
2021/07/03 06:21:29;;;;;;;;;;;;;;;;;;2142188;59;1261;-73
2021/07/03 06:23:54;;;;;;;;;;;;;;;;;;2141392;67;1283;-71
2021/07/03 06:26:19;;;;;;;;;;;;;;;;;;2141345;59;1924;-71
2021/07/03 06:28:44;;;;;;;;;;;;;;;;;;2141602;67;1310;-71
2021/07/03 06:31:09;;;;;;;;;;;;;;;;;;2143618;66;1251;-70
2021/07/03 06:33:35;;;;;;;;;;;;;;;;;;2143622;66;1588;-70
2021/07/03 06:36:00;;;;;;;;;;;;;;;;;;2142922;67;1227;-70
2021/07/03 06:38:25;;;;;;;;;;;;;;;;;;2141628;59;1835;-71
2021/07/03 06:40:50;;;;;;;;;;;;;;;;;;2142360;67;1558;-69
2021/07/03 06:43:16;;;;;;;;;;;;;;;;;;2141858;59;1936;-70
2021/07/03 06:45:41;;;;;;;;;;;;;;;;;;2142159;67;1923;-72
2021/07/03 06:48:06;;;;;;;;;;;;;;;;;;2140661;59;1836;-70
2021/07/03 06:50:31;;;;;;;;;;;;;;;;;;2141314;67;1335;-72
2021/07/03 06:52:57;;;;;;;;;;;;;;;;;;2141264;67;1225;-71
2021/07/03 06:55:22;;;;;;;;;;;;;;;;;;2140058;66;1940;-71
2021/07/03 06:57:47;;;;;;;;;;;;;;;;;;2143329;66;1591;-71
2021/07/03 07:00:13;;;;;;;;;;;;;;;;;;2143404;66;1517;-70
2021/07/03 07:02:38;;;;;;;;;;;;;;;;;;2141981;66;1563;-71
2021/07/03 07:05:06;;;;;;;;;;;;;;;;;;2141391;59;1958;-70
2021/07/03 07:07:31;;;;;;;;;;;;;;;;;;2141070;67;1941;-70
2021/07/03 07:09:56;;;;;;;;;;;;;;;;;;2140620;59;1942;-72
2021/07/03 07:12:21;;;;;;;;;;;;;;;;;;2141344;67;1245;-70
2021/07/03 07:14:47;;;;;;;;;;;;;;;;;;2140437;59;1760;-71
2021/07/03 07:17:12;;;;;;;;;;;;;;;;;;2141830;59;1561;-71
2021/07/03 07:19:37;;;;;;;;;;;;;;;;;;2140753;59;1753;-71
2021/07/03 07:22:03;;;;;;;;;;;;;;;;;;2145695;53;2603;-68
2021/07/03 07:24:28;;;;;;;;;;;;;;;;;;2138686;59;1821;-69
2021/07/03 07:26:53;;;;;;;;;;;;;;;;;;2140035;59;2306;-69
2021/07/03 07:29:18;;;;;;;;;;;;;;;;;;2140893;59;1544;-69
2021/07/03 07:31:45;;;;;;;;;;;;;;;;;;2139821;67;2050;-72
2021/07/03 07:34:11;;;;;;;;;;;;;;;;;;2139619;67;1348;-68
2021/07/03 07:36:36;;;;;;;;;;;;;;;;;;2138426;67;1222;-71
2021/07/03 07:39:01;;;;;;;;;;;;;;;;;;2139607;59;1168;-69
2021/07/03 07:41:26;;;;;;;;;;;;;;;;;;2139416;67;1335;-70
2021/07/03 07:43:52;;;;;;;;;;;;;;;;;;2139310;67;1157;-69
2021/07/03 07:46:17;;;;;;;;;;;;;;;;;;2140002;67;1928;-70
2021/07/03 07:48:42;;;;;;;;;;;;;;;;;;2136876;59;2391;-68
2021/07/03 07:51:07;;;;;;;;;;;;;;;;;;2137243;59;2794;-69
2021/07/03 07:53:32;;;;;;;;;;;;;;;;;;2138008;67;2038;-73
2021/07/03 07:55:58;;;;;;;;;;;;;;;;;;2137306;59;1877;-68
2021/07/03 07:58:23;;;;;;;;;;;;;;;;;;2138293;67;2322;-72
2021/07/03 08:00:49;;;;;;;;;;;;;;;;;;2138771;67;2279;-73
2021/07/03 08:03:14;;;;;;;;;;;;;;;;;;2135862;67;1334;-68
2021/07/03 08:05:39;;;;;;;;;;;;;;;;;;2138697;67;1092;-73
2021/07/03 08:08:08;;;;;;;;;;;;;;;;;;2139395;59;1925;-66
2021/07/03 08:10:33;;;;;;;;;;;;;;;;;;2138230;59;1256;-68
2021/07/03 08:12:59;;;;;;;;;;;;;;;;;;2137432;67;2310;-69
2021/07/03 08:15:24;;;;;;;;;;;;;;;;;;2137958;59;2569;-66
2021/07/03 08:17:49;;;;;;;;;;;;;;;;;;2138485;59;1885;-67
2021/07/03 08:20:19;;;;;;;;;;;;;;;;;;2138171;67;1304;-65
2021/07/03 08:22:48;;;;;;;;;;;;;;;;;;2137963;59;1869;-68
2021/07/03 08:25:13;;;;;;;;;;;;;;;;;;2137817;67;1448;-69
2021/07/03 08:27:39;;;;;;;;;;;;;;;;;;2135364;67;2386;-68
2021/07/03 08:30:05;;;;;;;;;;;;;;;;;;2137634;67;1161;-67
2021/07/03 08:32:31;;;;;;;;;;;;;;;;;;2138185;67;1597;-71
2021/07/03 08:34:56;;;;;;;;;;;;;;;;;;2135161;67;1082;-70
2021/07/03 08:37:21;;;;;;;;;;;;;;;;;;2137589;67;1134;-68
2021/07/03 08:39:46;;;;;;;;;;;;;;;;;;2136531;67;1601;-67
2021/07/03 08:42:11;;;;;;;;;;;;;;;;;;2137528;67;2006;-67
2021/07/03 08:44:36;;;;;;;;;;;;;;;;;;2138474;67;1227;-68
2021/07/03 08:47:02;;;;;;;;;;;;;;;;;;2137972;59;1935;-67
2021/07/03 08:49:27;;;;;;;;;;;;;;;;;;2137312;67;1266;-66
2021/07/03 08:51:54;;;;;;;;;;;;;;;;;;2138129;67;1296;-69
2021/07/03 08:54:19;;;;;;;;;;;;;;;;;;2139887;67;1236;-68
2021/07/03 08:56:44;;;;;;;;;;;;;;;;;;2138081;59;1162;-67
2021/07/03 08:59:15;;;;;;;;;;;;;;;;;;2138266;67;2325;-66
2021/07/03 09:01:48;;;;;;;;;;;;;;;;;;2137343;67;2558;-72
2021/07/03 09:04:13;;;;;;;;;;;;;;;;;;2135779;67;1917;-70
2021/07/03 09:06:38;;;;;;;;;;;;;;;;;;2139417;67;1976;-69
2021/07/03 09:09:03;;;;;;;;;;;;;;;;;;2138949;67;1228;-70
2021/07/03 09:11:28;;;;;;;;;;;;;;;;;;2139028;67;1347;-67
2021/07/03 09:14:02;;;;;;;;;;;;;;;;;;2138461;59;2255;-73
2021/07/03 09:16:29;;;;;;;;;;;;;;;;;;2138152;59;2520;-71
2021/07/03 09:18:55;;;;;;;;;;;;;;;;;;2137228;59;2023;-69
2021/07/03 09:21:21;;;;;;;;;;;;;;;;;;2137605;59;1517;-70
2021/07/03 09:23:46;;;;;;;;;;;;;;;;;;2138992;67;1532;-68
2021/07/03 09:26:11;;;;;;;;;;;;;;;;;;2137944;67;1928;-67
2021/07/03 09:28:44;;;;;;;;;;;;;;;;;;2137890;59;1947;-68
2021/07/03 09:31:11;;;;;;;;;;;;;;;;;;2138614;67;1325;-68
2021/07/03 09:33:38;;;;;;;;;;;;;;;;;;2136638;67;1547;-72
2021/07/03 09:36:04;;;;;;;;;;;;;;;;;;2137000;67;1377;-68
2021/07/03 09:38:33;;;;;;;;;;;;;;;;;;2137893;67;1262;-66
2021/07/03 09:41:05;;;;;;;;;;;;;;;;;;2139380;67;1154;-66
2021/07/03 09:43:30;;;;;;;;;;;;;;;;;;2139783;62;1255;-71
2021/07/03 09:45:55;;;;;;;;;;;;;;;;;;2136358;67;1920;-69
2021/07/03 09:48:20;;;;;;;;;;;;;;;;;;2138756;67;1277;-69
2021/07/03 09:50:46;;;;;;;;;;;;;;;;;;2137851;67;1248;-68
2021/07/03 09:53:11;;;;;;;;;;;;;;;;;;2136869;59;1185;-67
2021/07/03 09:55:37;;;;;;;;;;;;;;;;;;2138853;67;1358;-70
2021/07/03 09:58:03;;;;;;;;;;;;;;;;;;2134789;67;1305;-67
2021/07/03 10:00:28;;;;;;;;;;;;;;;;;;2138994;67;2410;-67
2021/07/03 10:02:54;;;;;;;;;;;;;;;;;;2137195;67;2669;-70
2021/07/03 10:05:20;;;;;;;;;;;;;;;;;;2134233;67;1270;-71
2021/07/03 10:07:52;;;;;;;;;;;;;;;;;;2137016;59;1928;-68
2021/07/03 10:10:19;;;;;;;;;;;;;;;;;;2139155;67;1210;-66
2021/07/03 10:12:49;;;;;;;;;;;;;;;;;;2139429;67;999;-69
2021/07/03 10:15:25;;;;;;;;;;;;;;;;;;2138944;59;2187;-66
2021/07/03 10:17:50;;;;;;;;;;;;;;;;;;2137229;67;2921;-67
2021/07/03 10:20:15;;;;;;;;;;;;;;;;;;2137871;67;1373;-67
2021/07/03 10:22:54;;;;;;;;;;;;;;;;;;2137290;59;2254;-68
2021/07/03 10:25:25;;;;;;;;;;;;;;;;;;2138120;59;1964;-69
2021/07/03 10:28:00;;;;;;;;;;;;;;;;;;2137350;59;1980;-67
2021/07/03 10:30:29;;;;;;;;;;;;;;;;;;2137687;59;1801;-71
2021/07/03 10:32:58;;;;;;;;;;;;;;;;;;2137727;59;1651;-69
2021/07/03 10:35:24;;;;;;;;;;;;;;;;;;2134277;59;1344;-67
2021/07/03 10:37:50;;;;;;;;;;;;;;;;;;2137319;59;1670;-71
2021/07/03 10:40:22;;;;;;;;;;;;;;;;;;2137771;67;1937;-69
2021/07/03 10:42:48;;;;;;;;;;;;;;;;;;2138535;59;1995;-66
2021/07/03 10:45:15;;;;;;;;;;;;;;;;;;2138528;67;1457;-70
2021/07/03 10:47:41;;;;;;;;;;;;;;;;;;2137668;59;1991;-71
2021/07/03 10:50:23;;;;;;;;;;;;;;;;;;2138444;67;1369;-65
2021/07/03 10:52:49;;;;;;;;;;;;;;;;;;2139008;67;1224;-70
2021/07/03 10:55:25;;;;;;;;;;;;;;;;;;2137504;67;1990;-69
2021/07/03 10:57:50;;;;;;;;;;;;;;;;;;2138867;67;1510;-69
2021/07/03 11:00:20;;;;;;;;;;;;;;;;;;2138149;67;1318;-67
2021/07/03 11:02:45;;;;;;;;;;;;;;;;;;2137100;59;2344;-71
2021/07/03 11:05:13;;;;;;;;;;;;;;;;;;2135608;59;1823;-69
2021/07/03 11:07:39;;;;;;;;;;;;;;;;;;2137563;67;1987;-68
2021/07/03 11:10:04;;;;;;;;;;;;;;;;;;2137010;59;1627;-65
2021/07/03 11:12:30;;;;;;;;;;;;;;;;;;2137665;59;1667;-68
2021/07/03 11:14:56;;;;;;;;;;;;;;;;;;2138204;59;1730;-66
2021/07/03 11:17:22;;;;;;;;;;;;;;;;;;2136981;67;2268;-69
2021/07/03 11:19:50;;;;;;;;;;;;;;;;;;2135587;59;2531;-69
2021/07/03 11:22:16;;;;;;;;;;;;;;;;;;2138350;59;1369;-66
2021/07/03 11:24:59;;;;;;;;;;;;;;;;;;2138008;67;1340;-67
2021/07/03 11:27:27;;;;;;;;;;;;;;;;;;2139091;59;1926;-67
2021/07/03 11:29:53;;;;;;;;;;;;;;;;;;2136445;59;1302;-67
2021/07/03 11:32:18;;;;;;;;;;;;;;;;;;2137414;59;2006;-69
2021/07/03 11:34:54;;;;;;;;;;;;;;;;;;2135851;67;1565;-67
2021/07/03 11:37:30;;;;;;;;;;;;;;;;;;2137422;59;1264;-68
2021/07/03 11:39:56;;;;;;;;;;;;;;;;;;2137652;67;966;-66
2021/07/03 11:42:50;;;;;;;;;;;;;;;;;;2138645;67;1194;-68
2021/07/03 11:45:16;;;;;;;;;;;;;;;;;;2135585;67;1457;-66
2021/07/03 11:47:44;;;;;;;;;;;;;;;;;;2137646;67;1929;-73
2021/07/03 11:50:21;;;;;;;;;;;;;;;;;;2138399;67;1405;-66
2021/07/03 11:52:51;;;;;;;;;;;;;;;;;;2137575;59;1969;-68
2021/07/03 11:55:27;;;;;;;;;;;;;;;;;;2138950;67;1317;-71
2021/07/03 11:57:53;;;;;;;;;;;;;;;;;;2137567;59;1989;-66
2021/07/03 12:00:20;;;;;;;;;;;;;;;;;;2138924;67;1502;-66
2021/07/03 12:02:46;;;;;;;;;;;;;;;;;;2138423;67;1138;-67
2021/07/03 12:05:12;;;;;;;;;;;;;;;;;;2135075;59;2728;-68
2021/07/03 12:07:38;;;;;;;;;;;;;;;;;;2134669;67;1986;-68
2021/07/03 12:10:04;;;;;;;;;;;;;;;;;;2136265;59;1977;-70
2021/07/03 12:12:30;;;;;;;;;;;;;;;;;;2139880;67;1287;-70
2021/07/03 12:14:59;;;;;;;;;;;;;;;;;;2138088;59;1277;-66
2021/07/03 12:17:24;;;;;;;;;;;;;;;;;;2138248;67;1396;-68
2021/07/03 12:19:50;;;;;;;;;;;;;;;;;;2136918;59;2287;-65
2021/07/03 12:22:19;;;;;;;;;;;;;;;;;;2137574;59;1874;-66
2021/07/03 12:24:45;;;;;;;;;;;;;;;;;;2138340;67;1735;-69
2021/07/03 12:27:21;;;;;;;;;;;;;;;;;;2138067;59;2425;-68
2021/07/03 12:29:46;;;;;;;;;;;;;;;;;;2135817;59;2353;-72
2021/07/03 12:32:12;;;;;;;;;;;;;;;;;;2138650;59;2109;-66
2021/07/03 12:34:39;;;;;;;;;;;;;;;;;;2134988;59;1874;-65
2021/07/03 12:37:06;;;;;;;;;;;;;;;;;;2137984;67;1645;-69
2021/07/03 12:39:31;;;;;;;;;;;;;;;;;;2138246;67;1442;-72
2021/07/03 12:42:01;;;;;;;;;;;;;;;;;;2137123;67;1391;-70
2021/07/03 12:44:37;;;;;;;;;;;;;;;;;;2140095;67;1266;-69
2021/07/03 12:47:03;;;;;;;;;;;;;;;;;;2138366;59;2138;-66
2021/07/03 12:49:33;;;;;;;;;;;;;;;;;;2138667;59;2230;-67
2021/07/03 12:51:58;;;;;;;;;;;;;;;;;;2135931;67;1338;-66
2021/07/03 12:54:24;;;;;;;;;;;;;;;;;;2139431;67;1467;-66
2021/07/03 12:56:52;;;;;;;;;;;;;;;;;;2136455;59;2450;-66
2021/07/03 12:59:17;;;;;;;;;;;;;;;;;;2135950;59;2404;-66
2021/07/03 13:01:43;;;;;;;;;;;;;;;;;;2138350;67;1592;-65
2021/07/03 13:04:08;;;;;;;;;;;;;;;;;;2134746;67;2475;-67
2021/07/03 13:06:34;;;;;;;;;;;;;;;;;;2138216;67;2611;-66
2021/07/03 13:08:59;;;;;;;;;;;;;;;;;;2138237;67;1156;-66
2021/07/03 13:11:28;;;;;;;;;;;;;;;;;;2138033;67;1272;-67
2021/07/03 13:13:57;;;;;;;;;;;;;;;;;;2136986;59;1164;-65
2021/07/03 13:16:22;;;;;;;;;;;;;;;;;;2138015;59;2013;-66
2021/07/03 13:18:47;;;;;;;;;;;;;;;;;;2137246;67;2668;-66
2021/07/03 13:21:13;;;;;;;;;;;;;;;;;;2137917;59;2541;-67
2021/07/03 13:23:38;;;;;;;;;;;;;;;;;;2138421;67;1669;-65
2021/07/03 13:26:05;;;;;;;;;;;;;;;;;;2138727;67;1924;-68
2021/07/03 13:28:30;;;;;;;;;;;;;;;;;;2137415;59;1288;-64
2021/07/03 13:30:55;;;;;;;;;;;;;;;;;;2137077;67;1273;-67
2021/07/03 13:33:20;;;;;;;;;;;;;;;;;;2138719;67;2203;-65
2021/07/03 13:35:45;;;;;;;;;;;;;;;;;;2137005;67;1221;-68
2021/07/03 13:38:11;;;;;;;;;;;;;;;;;;2138337;67;1120;-64
2021/07/03 13:40:36;;;;;;;;;;;;;;;;;;2139223;59;1311;-67
2021/07/03 13:43:01;;;;;;;;;;;;;;;;;;2137787;67;1291;-66
2021/07/03 13:45:26;;;;;;;;;;;;;;;;;;2137980;67;1290;-66
2021/07/03 13:47:52;;;;;;;;;;;;;;;;;;2138077;67;1940;-67
2021/07/03 13:50:18;;;;;;;;;;;;;;;;;;2137862;67;1639;-65
2021/07/03 13:52:43;;;;;;;;;;;;;;;;;;2137829;67;1050;-68
2021/07/03 13:55:09;;;;;;;;;;;;;;;;;;2139249;67;1177;-66
2021/07/03 13:57:34;;;;;;;;;;;;;;;;;;2138483;67;2279;-67
2021/07/03 14:00:00;;;;;;;;;;;;;;;;;;2136564;67;1471;-66
2021/07/03 14:02:25;;;;;;;;;;;;;;;;;;2137456;67;1298;-66
2021/07/03 14:04:50;;;;;;;;;;;;;;;;;;2135059;60;2290;-67
2021/07/03 14:07:15;;;;;;;;;;;;;;;;;;2137259;59;2746;-66
2021/07/03 14:09:40;;;;;;;;;;;;;;;;;;2138227;67;1199;-65
2021/07/03 14:12:06;;;;;;;;;;;;;;;;;;2137825;67;1346;-67
2021/07/03 14:14:31;;;;;;;;;;;;;;;;;;2138719;59;1984;-68
2021/07/03 14:16:56;;;;;;;;;;;;;;;;;;2138304;59;1611;-66
2021/07/03 14:19:25;;;;;;;;;;;;;;;;;;2137707;59;2224;-66
2021/07/03 14:21:51;;;;;;;;;;;;;;;;;;2137362;59;2368;-68
2021/07/03 14:24:16;;;;;;;;;;;;;;;;;;2138557;67;1677;-66
2021/07/03 14:26:42;;;;;;;;;;;;;;;;;;2138405;67;1994;-65
2021/07/03 14:29:07;;;;;;;;;;;;;;;;;;2138495;59;1963;-67
2021/07/03 14:31:32;;;;;;;;;;;;;;;;;;2137656;67;1515;-67
2021/07/03 14:33:57;;;;;;;;;;;;;;;;;;2135457;60;1190;-68
2021/07/03 14:36:23;;;;;;;;;;;;;;;;;;2137926;67;967;-68
2021/07/03 14:38:51;;;;;;;;;;;;;;;;;;2136916;67;1762;-68
2021/07/03 14:41:17;;;;;;;;;;;;;;;;;;2137217;67;1322;-66
2021/07/03 14:43:42;;;;;;;;;;;;;;;;;;2138163;67;998;-65
2021/07/03 14:46:08;;;;;;;;;;;;;;;;;;2138907;67;1923;-65
2021/07/03 14:48:33;;;;;;;;;;;;;;;;;;2138067;59;1341;-66
2021/07/03 14:50:58;;;;;;;;;;;;;;;;;;2137754;67;1303;-67
2021/07/03 14:53:23;;;;;;;;;;;;;;;;;;2138078;67;1610;-69
2021/07/03 14:55:49;;;;;;;;;;;;;;;;;;2138150;67;1176;-69
2021/07/03 14:58:14;;;;;;;;;;;;;;;;;;2137762;67;1204;-69
2021/07/03 15:00:40;;;;;;;;;;;;;;;;;;2137794;67;1231;-66
2021/07/03 15:03:05;;;;;;;;;;;;;;;;;;2138310;67;1174;-67
2021/07/03 15:05:30;;;;;;;;;;;;;;;;;;2135718;59;2442;-66
2021/07/03 15:07:55;;;;;;;;;;;;;;;;;;2138084;59;2587;-67
2021/07/03 15:10:20;;;;;;;;;;;;;;;;;;2138228;59;1609;-69
2021/07/03 15:12:46;;;;;;;;;;;;;;;;;;2138400;67;2088;-69
2021/07/03 15:15:11;;;;;;;;;;;;;;;;;;2138033;59;1712;-69
2021/07/03 15:17:36;;;;;;;;;;;;;;;;;;2139441;67;1227;-68
2021/07/03 15:20:02;;;;;;;;;;;;;;;;;;2136854;67;2206;-67
2021/07/03 15:22:27;;;;;;;;;;;;;;;;;;2136284;59;2724;-69
2021/07/03 15:24:53;;;;;;;;;;;;;;;;;;2136955;67;1344;-70
2021/07/03 15:27:18;;;;;;;;;;;;;;;;;;2133350;59;1928;-69
2021/07/03 15:29:43;;;;;;;;;;;;;;;;;;2138020;59;1204;-68
2021/07/03 15:32:08;;;;;;;;;;;;;;;;;;2138460;67;1290;-67
2021/07/03 15:34:34;;;;;;;;;;;;;;;;;;2135755;67;1351;-66
2021/07/03 15:36:59;;;;;;;;;;;;;;;;;;2137123;67;1203;-69
2021/07/03 15:39:24;;;;;;;;;;;;;;;;;;2138821;67;1150;-69
2021/07/03 15:41:49;;;;;;;;;;;;;;;;;;2137869;67;1457;-67
2021/07/03 15:44:15;;;;;;;;;;;;;;;;;;2139097;67;1254;-69
2021/07/03 15:46:40;;;;;;;;;;;;;;;;;;2137252;67;1924;-69
2021/07/03 15:49:05;;;;;;;;;;;;;;;;;;2138052;59;2474;-68
2021/07/03 15:51:31;;;;;;;;;;;;;;;;;;2137621;67;1328;-69
2021/07/03 15:53:56;;;;;;;;;;;;;;;;;;2136975;59;2278;-71
2021/07/03 15:56:21;;;;;;;;;;;;;;;;;;2137179;67;1095;-69
2021/07/03 15:58:46;;;;;;;;;;;;;;;;;;2138158;59;1913;-68
2021/07/03 16:01:12;;;;;;;;;;;;;;;;;;2138410;67;1316;-69
2021/07/03 16:03:37;;;;;;;;;;;;;;;;;;2136260;67;1310;-69
2021/07/03 16:06:02;;;;;;;;;;;;;;;;;;2136102;59;2317;-70
2021/07/03 16:08:28;;;;;;;;;;;;;;;;;;2137231;59;3475;-71
2021/07/03 16:10:53;;;;;;;;;;;;;;;;;;2137280;67;1261;-69
2021/07/03 16:13:18;;;;;;;;;;;;;;;;;;2137579;59;1812;-68
2021/07/03 16:15:43;;;;;;;;;;;;;;;;;;2138043;59;1775;-73
2021/07/03 16:18:08;;;;;;;;;;;;;;;;;;2137838;67;1775;-70
2021/07/03 16:20:34;;;;;;;;;;;;;;;;;;2137464;59;1212;-70
2021/07/03 16:22:59;;;;;;;;;;;;;;;;;;2136787;67;2480;-71
2021/07/03 16:25:25;;;;;;;;;;;;;;;;;;2138357;67;1336;-67
2021/07/03 16:27:51;;;;;;;;;;;;;;;;;;2137165;67;1912;-72
2021/07/03 16:30:17;;;;;;;;;;;;;;;;;;2137825;67;1675;-68
2021/07/03 16:32:42;;;;;;;;;;;;;;;;;;2137439;67;1638;-69
2021/07/03 16:35:08;;;;;;;;;;;;;;;;;;2134744;67;1182;-69
2021/07/03 16:37:33;;;;;;;;;;;;;;;;;;2137953;67;1203;-71
2021/07/03 16:39:58;;;;;;;;;;;;;;;;;;2137881;67;1238;-68
2021/07/03 16:42:24;;;;;;;;;;;;;;;;;;2137073;59;2020;-69
2021/07/03 16:44:49;;;;;;;;;;;;;;;;;;2137979;67;1898;-68
2021/07/03 16:47:14;;;;;;;;;;;;;;;;;;2137176;59;1982;-67
2021/07/03 16:49:39;;;;;;;;;;;;;;;;;;2136993;67;1568;-65
2021/07/03 16:52:05;;;;;;;;;;;;;;;;;;2137838;67;2120;-64
2021/07/03 16:54:30;;;;;;;;;;;;;;;;;;2136799;59;1826;-68